Allen, Argentina
Current Conditions -  °F | °C
As of 3:00 PM on Wednesday 28 Jan 2015 (Local Time) from SAZN Reporting Station
Clear Clear  
Wind Chill: 81°   Ceiling: Unl
Heat Index: 81°   Visibility: 6mi
Dew Point: 48°   Wind: 9mph
Humidity: 32%   Direction: 50°NE
Pressure: 29.97"   Gusts: NA
Location:  38.97°S, 67.83°W
Report Text: SAZN 281800Z 05008KT CAVOK 27/09 Q1015
Loading
Personal Weather Stations






























Interactive Weather Map New forecast layout! Learn more

10-Day Weather Forecast

Advertisements
Track Severe Weather on mobile